עמוד ראשי
METAR-TAF:

METAR-TAF

שדות תעופה :

Koliganek, אלסקה, ארצות הברית

קו רוחב: 59-43-36N, קו אורך: 157-15-34W, גובה: 82מטר

תצפית מזג אוויר נוכחית

הדו"ח נערך לפני 1 שעות ו 12דקות, בשעה 15:56 UTC
רוח 6קשר מכיוון מערב/צפון-מערב
טמפרטורת 11 צלסיוס
לחות 76%
לחץ 1023 hPa
ראות: 11.3קילומטר
מעונן בגובה 7500רגל

METAR: PAJZ 151556Z AUTO 30006KT 7SM OVC075 11/07 A3021 RMK AO2 SLP234 T01110067 $

זמן: 09:08 (17:08 UTC)


TAF: חסר

תצפיות ותחזיות מזג אוויר לגבי יותר מ- 4,000 שדות תעופה ברחבי העולם. דוחות METAR ו- TAF.

התחנות הזמינות מסומנות בנקודות צהובות ואדומות על גבי המפה.

העבר את העכבר לנקודה הצבעונית על מנת לראות את שם התחנה.

לאחר מכן, לחץ כדי לראות את תוכן ואת תחזיות מזג האוויר.

כדי לשנות את המפה: לחץ על הכפתורים הירוקים עם הפלוס השחור כדי להתקרב; על הכפתור הירוק עם המקף כדי להתרחק; או בחיצים הירוקים למפות סמוכות.


METAR-TAF: